createdAt,value
2022-08-30T00:02:02.455Z,16
2022-08-30T00:04:34.638Z,16
2022-08-30T00:07:06.056Z,19
2022-08-30T00:09:38.400Z,22
2022-08-30T00:12:10.321Z,19
2022-08-30T00:14:42.528Z,17
2022-08-30T00:17:14.956Z,13
2022-08-30T00:19:47.141Z,20
2022-08-30T00:22:18.554Z,17
2022-08-30T00:24:50.642Z,16
2022-08-30T00:27:22.638Z,18
2022-08-30T00:29:54.748Z,16
2022-08-30T00:32:26.578Z,19
2022-08-30T00:34:58.562Z,20
2022-08-30T00:37:30.866Z,22
2022-08-30T00:40:02.661Z,16
2022-08-30T00:42:35.260Z,16
2022-08-30T00:45:06.208Z,21
2022-08-30T00:47:37.226Z,20
2022-08-30T00:50:08.764Z,34
2022-08-30T00:52:39.979Z,21
2022-08-30T00:55:11.565Z,18
2022-08-30T00:57:42.962Z,20
2022-08-30T01:00:14.323Z,21
2022-08-30T01:02:53.353Z,16
2022-08-30T01:05:25.161Z,18
2022-08-30T01:07:57.791Z,24
2022-08-30T01:10:29.114Z,20
2022-08-30T01:13:00.679Z,16
2022-08-30T01:15:32.007Z,12
2022-08-30T01:18:10.439Z,15
2022-08-30T01:20:44.948Z,15
2022-08-30T01:23:22.978Z,10
2022-08-30T01:25:54.039Z,16
2022-08-30T01:28:24.999Z,20
2022-08-30T01:30:56.925Z,19
2022-08-30T01:33:28.171Z,16
2022-08-30T01:35:59.494Z,17
2022-08-30T01:38:36.480Z,16
2022-08-30T01:41:07.855Z,20
2022-08-30T01:43:39.128Z,20
2022-08-30T01:46:09.882Z,23
2022-08-30T01:48:54.542Z,20
2022-08-30T01:51:24.537Z,21
2022-08-30T01:53:55.990Z,20
2022-08-30T01:56:27.058Z,19
2022-08-30T01:59:03.538Z,23
2022-08-30T02:01:34.531Z,20
2022-08-30T02:04:06.803Z,18
2022-08-30T02:06:38.442Z,21
2022-08-30T02:09:09.614Z,19
2022-08-30T02:11:41.544Z,20
2022-08-30T02:14:12.813Z,17
2022-08-30T02:16:44.180Z,16
2022-08-30T02:19:16.337Z,20
2022-08-30T02:21:48.754Z,20
2022-08-30T02:24:21.079Z,19
2022-08-30T02:26:53.390Z,16
2022-08-30T02:29:25.374Z,18
2022-08-30T02:31:57.310Z,20
2022-08-30T02:34:28.461Z,23
2022-08-30T02:36:58.554Z,20
2022-08-30T02:39:30.778Z,16
2022-08-30T02:42:02.244Z,26
2022-08-30T02:44:33.509Z,24
2022-08-30T02:47:04.679Z,20
2022-08-30T02:49:37.039Z,18
2022-08-30T02:52:08.441Z,17
2022-08-30T02:54:39.723Z,21
2022-08-30T02:57:20.835Z,21
2022-08-30T02:59:51.185Z,17
2022-08-30T03:02:26.087Z,19
2022-08-30T03:04:57.891Z,19
2022-08-30T03:07:29.970Z,24
2022-08-30T03:10:02.187Z,22
2022-08-30T03:12:35.200Z,23
2022-08-30T03:15:11.577Z,16
2022-08-30T03:17:43.144Z,19
2022-08-30T03:20:17.584Z,23
2022-08-30T03:22:49.656Z,21
2022-08-30T03:25:21.498Z,20
2022-08-30T03:27:53.723Z,21
2022-08-30T03:30:25.229Z,16
2022-08-30T03:32:57.963Z,24
2022-08-30T03:35:33.661Z,18
2022-08-30T03:38:04.374Z,20
2022-08-30T03:40:36.378Z,22
2022-08-30T03:43:09.089Z,23
2022-08-30T03:45:41.058Z,26
2022-08-30T03:48:13.186Z,22
2022-08-30T03:50:44.081Z,20
2022-08-30T03:53:16.742Z,22
2022-08-30T03:55:52.661Z,21
2022-08-30T03:58:27.062Z,29
2022-08-30T04:00:57.955Z,21
2022-08-30T04:03:38.080Z,19
2022-08-30T04:06:15.000Z,20
2022-08-30T04:08:46.664Z,23
2022-08-30T04:11:24.305Z,18
2022-08-30T04:14:04.513Z,16
2022-08-30T04:16:35.484Z,21
2022-08-30T04:19:06.843Z,26
2022-08-30T04:21:47.943Z,21
2022-08-30T04:24:19.450Z,20
2022-08-30T04:26:50.729Z,20
2022-08-30T04:29:23.232Z,21
2022-08-30T04:31:56.071Z,20
2022-08-30T04:34:27.559Z,20
2022-08-30T04:37:00.090Z,20
2022-08-30T04:39:32.199Z,23
2022-08-30T04:42:03.875Z,16
2022-08-30T04:44:35.361Z,23
2022-08-30T04:47:07.407Z,38
2022-08-30T04:49:39.606Z,28
2022-08-30T04:52:11.618Z,23
2022-08-30T04:54:43.558Z,22
2022-08-30T04:57:15.623Z,31
2022-08-30T04:59:47.265Z,21
2022-08-30T05:02:19.518Z,27
2022-08-30T05:04:51.114Z,25
2022-08-30T05:07:23.335Z,26
2022-08-30T05:09:55.896Z,21
2022-08-30T05:12:27.428Z,21
2022-08-30T05:15:02.598Z,20
2022-08-30T05:17:34.462Z,24
2022-08-30T05:20:06.224Z,21
2022-08-30T05:22:38.622Z,26
2022-08-30T05:25:15.108Z,28
2022-08-30T05:27:46.204Z,20
2022-08-30T05:30:17.946Z,25
2022-08-30T05:32:49.788Z,25
2022-08-30T05:35:26.306Z,17
2022-08-30T05:37:57.153Z,24
2022-08-30T05:40:29.847Z,24
2022-08-30T05:43:03.443Z,25
2022-08-30T05:45:35.702Z,24
2022-08-30T05:48:08.166Z,24
2022-08-30T05:50:41.029Z,26
2022-08-30T05:53:11.671Z,29
2022-08-30T05:55:42.766Z,24
2022-08-30T05:58:14.409Z,25
2022-08-30T06:00:46.607Z,28
2022-08-30T06:03:18.282Z,31
2022-08-30T06:05:50.129Z,25
2022-08-30T06:08:24.517Z,21
2022-08-30T06:10:56.754Z,28
2022-08-30T06:13:28.225Z,31
2022-08-30T06:16:00.268Z,25
2022-08-30T06:18:32.569Z,31
2022-08-30T06:21:04.370Z,24
2022-08-30T06:23:37.180Z,24
2022-08-30T06:26:08.829Z,27
2022-08-30T06:28:40.681Z,26
2022-08-30T06:31:12.814Z,28
2022-08-30T06:33:47.408Z,25
2022-08-30T06:36:18.686Z,25
2022-08-30T06:38:50.723Z,31
2022-08-30T06:41:23.103Z,28
2022-08-30T06:43:55.466Z,32
2022-08-30T06:46:28.328Z,30
2022-08-30T06:49:00.391Z,31
2022-08-30T06:51:35.139Z,28
2022-08-30T06:54:12.348Z,39
2022-08-30T06:56:59.549Z,23
2022-08-30T06:59:38.955Z,24
2022-08-30T07:02:10.817Z,40
2022-08-30T07:04:43.584Z,43
2022-08-30T07:07:15.186Z,43
2022-08-30T07:09:48.123Z,44
2022-08-30T07:12:21.223Z,36
2022-08-30T07:14:53.599Z,56
2022-08-30T07:17:35.073Z,52
2022-08-30T07:20:05.719Z,56
2022-08-30T07:22:38.277Z,29
2022-08-30T07:25:10.990Z,30
2022-08-30T07:27:43.622Z,31
2022-08-30T07:30:16.573Z,28
2022-08-30T07:32:48.939Z,35
2022-08-30T07:35:21.419Z,35
2022-08-30T07:37:53.921Z,35
2022-08-30T07:40:26.418Z,36
2022-08-30T07:42:59.730Z,33
2022-08-30T07:45:35.672Z,52
2022-08-30T07:48:07.904Z,41
2022-08-30T07:50:40.455Z,41
2022-08-30T07:53:13.873Z,48
2022-08-30T07:55:46.589Z,56
2022-08-30T07:58:19.712Z,48
2022-08-30T08:00:52.051Z,32
2022-08-30T08:03:24.351Z,49
2022-08-30T08:05:56.825Z,40
2022-08-30T08:08:29.264Z,45
2022-08-30T08:11:02.162Z,29
2022-08-30T08:13:54.828Z,45
2022-08-30T08:16:25.822Z,48
2022-08-30T08:18:58.090Z,53
2022-08-30T08:21:30.510Z,45
2022-08-30T08:24:02.692Z,44
2022-08-30T08:26:35.055Z,45
2022-08-30T08:29:07.448Z,35
2022-08-30T08:31:40.553Z,35
2022-08-30T08:34:13.060Z,36
2022-08-30T08:36:45.549Z,33
2022-08-30T08:39:17.865Z,33
2022-08-30T08:41:50.291Z,31
2022-08-30T08:44:22.480Z,32
2022-08-30T08:46:54.719Z,31
2022-08-30T08:49:28.169Z,35
2022-08-30T08:52:00.642Z,35
2022-08-30T08:54:33.372Z,35
2022-08-30T08:57:05.366Z,32
2022-08-30T08:59:37.525Z,40
2022-08-30T09:02:09.887Z,36
2022-08-30T09:04:42.375Z,41
2022-08-30T09:07:15.035Z,34
2022-08-30T09:09:47.400Z,33
2022-08-30T09:12:22.735Z,32
2022-08-30T09:14:56.162Z,31
2022-08-30T09:17:27.826Z,33
2022-08-30T09:20:00.679Z,33
2022-08-30T09:22:33.107Z,31
2022-08-30T09:25:05.791Z,30
2022-08-30T09:27:38.850Z,36
2022-08-30T09:30:17.998Z,33
2022-08-30T09:32:50.456Z,30
2022-08-30T09:35:22.583Z,39
2022-08-30T09:37:55.123Z,46
2022-08-30T09:40:29.014Z,48
2022-08-30T09:43:01.928Z,41
2022-08-30T09:45:34.192Z,35
2022-08-30T09:48:07.345Z,48
2022-08-30T09:50:42.914Z,69
2022-08-30T09:53:24.070Z,36
2022-08-30T09:55:55.050Z,37
2022-08-30T09:58:30.431Z,50
2022-08-30T10:01:02.135Z,39
2022-08-30T10:03:42.821Z,35
2022-08-30T10:06:13.882Z,37
2022-08-30T10:08:46.910Z,37
2022-08-30T10:11:19.919Z,40
2022-08-30T10:13:53.702Z,37
2022-08-30T10:16:25.168Z,32
2022-08-30T10:18:58.168Z,32
2022-08-30T10:21:31.839Z,35
2022-08-30T10:24:03.823Z,32
2022-08-30T10:26:37.123Z,35
2022-08-30T10:29:09.982Z,36
2022-08-30T10:31:41.751Z,36
2022-08-30T10:34:14.418Z,32
2022-08-30T10:36:46.984Z,30
2022-08-30T10:39:19.260Z,36
2022-08-30T10:41:53.020Z,30
2022-08-30T10:44:25.262Z,29
2022-08-30T10:46:58.174Z,36
2022-08-30T10:49:31.154Z,40
2022-08-30T10:52:03.703Z,43
2022-08-30T10:54:36.757Z,32
2022-08-30T10:57:09.231Z,32
2022-08-30T10:59:42.058Z,36
2022-08-30T11:02:15.423Z,48
2022-08-30T11:04:46.808Z,57
2022-08-30T11:07:19.265Z,43
2022-08-30T11:09:52.166Z,43
2022-08-30T11:12:26.690Z,43
2022-08-30T11:14:58.140Z,47
2022-08-30T11:17:30.525Z,48
2022-08-30T11:20:03.332Z,39
2022-08-30T11:22:39.728Z,31
2022-08-30T11:25:13.239Z,43
2022-08-30T11:27:45.869Z,59
2022-08-30T11:30:20.250Z,40
2022-08-30T11:32:51.400Z,45
2022-08-30T11:35:26.193Z,39
2022-08-30T11:38:02.060Z,40
2022-08-30T11:40:32.981Z,40
2022-08-30T11:43:04.062Z,40
2022-08-30T11:45:35.143Z,44
2022-08-30T11:48:07.640Z,37
2022-08-30T11:50:40.172Z,44
2022-08-30T11:53:13.244Z,38
2022-08-30T11:55:45.617Z,36
2022-08-30T11:58:18.602Z,35
2022-08-30T12:00:53.347Z,34
2022-08-30T12:03:25.526Z,33
2022-08-30T12:06:00.248Z,39
2022-08-30T12:08:32.598Z,36
2022-08-30T12:11:04.529Z,60
2022-08-30T12:13:38.102Z,45
2022-08-30T12:16:10.094Z,45
2022-08-30T12:18:44.804Z,35
2022-08-30T12:21:18.450Z,40
2022-08-30T12:23:53.662Z,40
2022-08-30T12:26:26.766Z,38
2022-08-30T12:28:58.773Z,33
2022-08-30T12:31:30.654Z,33
2022-08-30T12:34:02.635Z,38
2022-08-30T12:36:35.184Z,34
2022-08-30T12:39:07.382Z,36
2022-08-30T12:41:44.169Z,36
2022-08-30T12:44:15.679Z,33
2022-08-30T12:46:53.146Z,33
2022-08-30T12:49:35.148Z,30
2022-08-30T12:52:06.618Z,34
2022-08-30T12:54:39.350Z,39
2022-08-30T12:57:35.668Z,37
2022-08-30T13:00:06.741Z,52
2022-08-30T13:02:38.520Z,46
2022-08-30T13:05:11.026Z,37
2022-08-30T13:07:44.366Z,33
2022-08-30T13:10:20.120Z,33
2022-08-30T13:12:51.654Z,32
2022-08-30T13:15:24.368Z,31
2022-08-30T13:17:57.820Z,35
2022-08-30T13:20:30.323Z,33
2022-08-30T13:23:02.515Z,42
2022-08-30T13:25:34.892Z,35
2022-08-30T13:28:08.707Z,44
2022-08-30T13:30:42.644Z,44
2022-08-30T13:33:16.008Z,32
2022-08-30T13:35:50.909Z,39
2022-08-30T13:38:22.581Z,41
2022-08-30T13:40:56.325Z,31
2022-08-30T13:43:28.502Z,36
2022-08-30T13:46:43.316Z,35
2022-08-30T13:49:55.982Z,31
2022-08-30T13:52:27.150Z,33
2022-08-30T13:54:58.925Z,31
2022-08-30T13:58:01.609Z,36
2022-08-30T14:00:38.688Z,33
2022-08-30T14:03:10.835Z,33
2022-08-30T14:06:34.467Z,36
2022-08-30T14:09:07.583Z,29
2022-08-30T14:11:41.070Z,33
2022-08-30T14:14:43.941Z,32
2022-08-30T14:17:15.523Z,33
2022-08-30T14:19:50.319Z,28
2022-08-30T14:22:24.223Z,35
2022-08-30T14:24:56.616Z,32
2022-08-30T14:27:31.707Z,28
2022-08-30T14:30:01.601Z,28
2022-08-30T14:32:34.272Z,31
2022-08-30T14:35:07.786Z,44
2022-08-30T14:37:40.248Z,44
2022-08-30T14:40:12.728Z,31
2022-08-30T14:42:45.083Z,33
2022-08-30T14:45:19.706Z,30
2022-08-30T14:47:51.429Z,28
2022-08-30T14:50:23.675Z,27
2022-08-30T14:52:59.074Z,28
2022-08-30T14:55:31.434Z,40
2022-08-30T14:58:04.518Z,39
2022-08-30T15:00:36.391Z,47
2022-08-30T15:03:08.915Z,33
2022-08-30T15:05:41.647Z,44
2022-08-30T15:08:15.188Z,29
2022-08-30T15:10:47.731Z,36
2022-08-30T15:13:22.971Z,37
2022-08-30T15:15:54.094Z,25
2022-08-30T15:18:26.744Z,37
2022-08-30T15:20:59.954Z,25
2022-08-30T15:23:32.654Z,31
2022-08-30T15:26:09.390Z,31
2022-08-30T15:28:41.148Z,31
2022-08-30T15:31:13.813Z,31
2022-08-30T15:33:46.319Z,29
2022-08-30T15:36:18.943Z,33
2022-08-30T15:38:51.187Z,27
2022-08-30T15:41:24.029Z,25
2022-08-30T15:43:55.943Z,37
2022-08-30T15:46:30.652Z,40
2022-08-30T15:49:02.561Z,38
2022-08-30T15:51:46.271Z,33
2022-08-30T15:54:17.036Z,33
2022-08-30T15:56:48.821Z,28
2022-08-30T15:59:21.486Z,28
2022-08-30T16:01:54.553Z,23
2022-08-30T16:04:28.371Z,27
2022-08-30T16:07:00.587Z,27
2022-08-30T16:09:33.587Z,29
2022-08-30T16:12:05.211Z,25
2022-08-30T16:14:38.057Z,25
2022-08-30T16:17:10.436Z,24
2022-08-30T16:19:42.185Z,29
2022-08-30T16:22:22.715Z,34
2022-08-30T16:24:53.661Z,44
2022-08-30T16:27:26.106Z,28
2022-08-30T16:29:58.301Z,25
2022-08-30T16:32:30.635Z,27
2022-08-30T16:35:06.785Z,24
2022-08-30T16:37:38.385Z,32
2022-08-30T16:40:12.564Z,23
2022-08-30T16:42:45.393Z,26
2022-08-30T16:45:20.039Z,28
2022-08-30T16:47:52.791Z,24
2022-08-30T16:50:25.706Z,31
2022-08-30T16:52:58.028Z,20
2022-08-30T16:55:30.280Z,24
2022-08-30T16:58:05.041Z,35
2022-08-30T17:00:37.500Z,28
2022-08-30T17:03:11.121Z,29
2022-08-30T17:05:46.881Z,28
2022-08-30T17:08:27.013Z,28
2022-08-30T17:10:59.367Z,28
2022-08-30T17:13:33.618Z,26
2022-08-30T17:16:06.998Z,25
2022-08-30T17:18:38.213Z,36
2022-08-30T17:21:13.084Z,53
2022-08-30T17:23:45.791Z,28
2022-08-30T17:26:20.391Z,35
2022-08-30T17:28:52.398Z,32
2022-08-30T17:31:25.993Z,33
2022-08-30T17:34:05.217Z,30
2022-08-30T17:36:37.395Z,37
2022-08-30T17:39:13.220Z,33
2022-08-30T20:24:27.404Z,33
2022-08-30T20:26:58.105Z,32
2022-08-30T20:29:30.527Z,32
2022-08-30T20:32:03.450Z,31
2022-08-30T20:34:35.803Z,36
2022-08-30T20:37:08.387Z,37
2022-08-30T20:39:40.983Z,35
2022-08-30T20:42:13.711Z,36
2022-08-30T20:44:46.629Z,31
2022-08-30T20:47:19.293Z,35
2022-08-30T20:49:51.467Z,32
2022-08-30T20:52:22.588Z,37
2022-08-30T20:54:55.301Z,34
2022-08-30T20:57:28.013Z,31
2022-08-30T21:00:00.764Z,29
2022-08-30T21:02:34.317Z,36
2022-08-30T21:05:07.732Z,42
2022-08-30T21:07:40.545Z,37
2022-08-30T21:10:13.897Z,40
2022-08-30T21:12:46.824Z,41
2022-08-30T21:15:38.906Z,32
2022-08-30T21:18:09.587Z,44
2022-08-30T21:20:42.332Z,46
2022-08-30T21:23:15.009Z,37
2022-08-30T21:25:47.290Z,44
2022-08-30T21:28:20.644Z,45
2022-08-30T21:30:53.462Z,39
2022-08-30T21:33:25.870Z,40
2022-08-30T21:35:58.438Z,41
2022-08-30T21:38:31.194Z,39
2022-08-30T21:41:03.231Z,37
2022-08-30T21:43:35.692Z,41
2022-08-30T21:46:08.500Z,36
2022-08-30T21:48:41.053Z,35
2022-08-30T21:51:14.040Z,34
2022-08-30T21:53:46.539Z,44
2022-08-30T21:56:22.537Z,45
2022-08-30T21:58:54.900Z,44
2022-08-30T22:01:27.621Z,39
2022-08-30T22:04:00.319Z,36
2022-08-30T22:06:33.584Z,40
2022-08-30T22:09:06.317Z,40
2022-08-30T22:11:39.341Z,41
2022-08-30T22:14:12.249Z,34
2022-08-30T22:16:44.478Z,32
2022-08-30T22:19:23.817Z,31
2022-08-30T22:22:02.279Z,36
2022-08-30T22:24:33.461Z,40
2022-08-30T22:27:05.843Z,31
2022-08-30T22:29:38.237Z,44
2022-08-30T22:32:11.110Z,44
2022-08-30T22:34:43.671Z,38
2022-08-30T22:37:16.373Z,41
2022-08-30T22:39:48.981Z,32
2022-08-30T22:42:21.241Z,37
2022-08-30T22:44:54.005Z,29
2022-08-30T22:47:26.820Z,33
2022-08-30T22:49:58.030Z,33
2022-08-30T22:52:30.449Z,36
2022-08-30T22:55:03.161Z,39
2022-08-30T22:57:36.341Z,30
2022-08-30T23:00:09.280Z,33
2022-08-30T23:02:42.127Z,38
2022-08-30T23:05:14.990Z,37
2022-08-30T23:07:47.682Z,39
2022-08-30T23:10:21.007Z,33
2022-08-30T23:12:53.909Z,31
2022-08-30T23:15:26.870Z,36
2022-08-30T23:18:00.075Z,36
2022-08-30T23:20:33.025Z,36
2022-08-30T23:23:06.550Z,35
2022-08-30T23:25:44.747Z,35
2022-08-30T23:28:21.402Z,33
2022-08-30T23:30:53.261Z,29
2022-08-30T23:33:25.729Z,33
2022-08-30T23:35:57.858Z,32
2022-08-30T23:38:30.680Z,33
2022-08-30T23:41:02.727Z,33
2022-08-30T23:43:34.965Z,31
2022-08-30T23:46:07.320Z,33
2022-08-30T23:48:52.736Z,36
2022-08-30T23:51:23.107Z,36
2022-08-30T23:53:56.443Z,31
2022-08-30T23:56:29.272Z,28
2022-08-30T23:59:02.250Z,31
